TimeMDT,TemperatureF,Dew PointF,Humidity,Sea Level PressureIn,VisibilityMPH,Wind Direction,Wind SpeedMPH,Gust SpeedMPH,PrecipitationIn,Events,Conditions,WindDirDegrees,DateUTC
12:56 AM,39.9,29.1,65,30.04,10.0,SSE,8.1,-,N/A,,Clear,160,2013-03-15 06:56:00
1:56 AM,43.9,28.0,54,30.03,10.0,South,11.5,-,N/A,,Clear,190,2013-03-15 07:56:00
2:56 AM,45.0,27.1,50,30.01,10.0,South,5.8,-,N/A,,Clear,190,2013-03-15 08:56:00
3:56 AM,43.9,27.1,52,29.99,10.0,SSE,8.1,-,N/A,,Scattered Clouds,160,2013-03-15 09:56:00
4:56 AM,45.0,26.1,48,29.99,10.0,SSW,8.1,18.4,N/A,,Mostly Cloudy,200,2013-03-15 10:56:00
5:56 AM,41.9,27.1,56,30.01,10.0,East,9.2,-,N/A,,Overcast,90,2013-03-15 11:56:00
6:56 AM,41.9,26.1,53,30.02,10.0,SSE,8.1,-,N/A,,Overcast,160,2013-03-15 12:56:00
7:56 AM,41.0,27.1,58,30.04,10.0,SSE,11.5,-,N/A,,Overcast,160,2013-03-15 13:56:00
8:56 AM,41.9,27.1,56,30.03,10.0,South,10.4,-,N/A,,Mostly Cloudy,170,2013-03-15 14:56:00
9:56 AM,41.9,27.1,56,30.03,10.0,South,10.4,-,N/A,,Mostly Cloudy,170,2013-03-15 15:56:00
10:56 AM,43.0,27.1,54,30.04,10.0,SSE,9.2,-,N/A,,Overcast,160,2013-03-15 16:56:00
11:56 AM,43.0,27.1,54,30.04,10.0,SSE,10.4,-,N/A,,Mostly Cloudy,150,2013-03-15 17:56:00
12:56 PM,43.9,26.1,50,30.03,10.0,SSW,10.4,-,N/A,,Scattered Clouds,210,2013-03-15 18:56:00
1:56 PM,43.9,26.1,50,30.00,10.0,South,10.4,-,N/A,,Clear,180,2013-03-15 19:56:00
2:56 PM,45.0,26.1,48,29.97,10.0,ESE,5.8,-,N/A,,Partly Cloudy,110,2013-03-15 20:56:00
3:56 PM,43.9,28.0,54,29.96,10.0,SE,10.4,-,N/A,,Partly Cloudy,130,2013-03-15 21:56:00
4:56 PM,45.0,26.1,48,29.95,10.0,SSE,5.8,-,N/A,,Scattered Clouds,160,2013-03-15 22:56:00
5:56 PM,43.9,25.2,48,29.97,10.0,Calm,Calm,-,N/A,,Mostly Cloudy,0,2013-03-15 23:56:00
6:56 PM,41.0,28.0,60,29.97,10.0,SE,5.8,-,N/A,,Mostly Cloudy,130,2013-03-16 00:56:00
7:56 PM,39.9,29.1,65,29.97,10.0,SSE,8.1,-,N/A,,Overcast,150,2013-03-16 01:56:00
8:56 PM,39.9,28.0,63,29.97,10.0,SSE,9.2,-,N/A,,Overcast,160,2013-03-16 02:56:00
9:56 PM,39.9,28.0,63,29.95,10.0,South,10.4,-,N/A,,Clear,170,2013-03-16 03:56:00
11:56 PM,39.9,27.1,60,29.93,10.0,South,12.7,-,N/A,,Scattered Clouds,180,2013-03-16 05:56:00